Time;durP1;ratioP1;P1;durP2;ratioP2;P2;SDS_P1;SDS_P2;PMS_P1;PMS_P2;Temp;Humidity;BMP_temperature;BMP_pressure;BME280_temperature;BME280_humidity;BME280_pressure;Samples;Min_cycle;Max_cycle;Signal;HPM_P1;HPM_P2
2023/08/09 00:00:09;;;;;;;3.20;2.50;;;17.70;99.90;;;;;;4991575;28;20992;-65
2023/08/09 00:02:37;;;;;;;3.60;2.80;;;17.70;99.90;;;;;;4990733;28;20446;-66
2023/08/09 00:05:06;;;;;;;3.00;2.57;;;17.70;99.90;;;;;;4982442;28;20562;-65
2023/08/09 00:07:34;;;;;;;4.20;3.40;;;17.60;99.90;;;;;;4972076;28;20981;-65
2023/08/09 00:10:02;;;;;;;3.77;2.47;;;17.60;99.90;;;;;;4972012;28;20914;-66
2023/08/09 00:12:31;;;;;;;3.10;2.43;;;17.50;99.90;;;;;;4970768;28;20962;-66
2023/08/09 00:15:01;;;;;;;2.43;2.13;;;17.50;99.90;;;;;;4970823;28;21181;-65
2023/08/09 00:17:29;;;;;;;2.40;2.17;;;17.50;99.90;;;;;;4971745;28;20819;-65
2023/08/09 00:19:57;;;;;;;3.60;2.60;;;17.40;99.90;;;;;;4987599;28;20858;-65
2023/08/09 00:22:25;;;;;;;2.80;2.43;;;17.40;99.90;;;;;;4990080;28;21219;-64
2023/08/09 00:24:53;;;;;;;2.47;2.27;;;17.40;99.90;;;;;;4990798;28;20471;-66
2023/08/09 00:27:21;;;;;;;3.73;2.13;;;17.40;99.90;;;;;;4991100;28;20447;-66
2023/08/09 00:29:49;;;;;;;5.07;2.30;;;17.40;99.90;;;;;;4990942;28;20485;-65
2023/08/09 00:32:19;;;;;;;2.70;2.00;;;17.40;99.90;;;;;;4986593;28;20451;-66
2023/08/09 00:34:47;;;;;;;2.50;2.30;;;17.30;99.90;;;;;;4985658;28;20477;-65
2023/08/09 00:37:15;;;;;;;2.40;2.00;;;17.20;99.90;;;;;;4990778;28;20449;-65
2023/08/09 00:39:43;;;;;;;7.33;2.63;;;17.20;99.90;;;;;;4991080;28;20521;-66
2023/08/09 00:42:11;;;;;;;2.10;1.90;;;17.20;99.90;;;;;;4990403;28;20536;-66
2023/08/09 00:44:39;;;;;;;2.33;2.13;;;17.10;99.90;;;;;;4989806;28;20493;-65
2023/08/09 00:47:09;;;;;;;4.33;2.40;;;17.00;99.90;;;;;;4979628;28;20447;-65
2023/08/09 00:49:39;;;;;;;3.13;2.30;;;17.00;99.90;;;;;;4971515;28;20486;-66
2023/08/09 00:52:07;;;;;;;2.20;1.93;;;17.00;99.90;;;;;;4970868;28;20542;-65
2023/08/09 00:54:39;;;;;;;3.50;2.03;;;17.00;99.90;;;;;;4969076;28;20467;-65
2023/08/09 00:57:07;;;;;;;2.93;2.20;;;16.90;99.90;;;;;;4971133;28;20462;-66
2023/08/09 00:59:35;;;;;;;2.97;2.70;;;16.90;99.90;;;;;;4970840;28;20440;-66
2023/08/09 01:02:03;;;;;;;4.87;2.03;;;16.70;99.90;;;;;;4989241;28;20534;-65
2023/08/09 01:04:31;;;;;;;2.53;2.27;;;16.60;99.90;;;;;;4989285;28;20494;-65
2023/08/09 01:07:10;;;;;;;3.13;2.40;;;16.50;99.90;;;;;;4990505;28;20449;-65
2023/08/09 01:09:47;;;;;;;2.77;2.57;;;16.40;99.90;;;;;;4990217;28;20486;-66
2023/08/09 01:12:19;;;;;;;2.27;2.07;;;16.30;99.90;;;;;;4989674;28;20476;-64
2023/08/09 01:14:51;;;;;;;3.10;2.20;;;16.20;99.90;;;;;;4980539;28;20505;-66
2023/08/09 01:17:21;;;;;;;3.33;2.40;;;16.20;99.90;;;;;;4971103;28;20510;-66
2023/08/09 01:19:52;;;;;;;5.00;2.97;;;16.20;99.90;;;;;;4970864;28;20847;-65
2023/08/09 01:22:24;;;;;;;4.23;2.60;;;16.10;99.90;;;;;;4970448;28;20452;-66
2023/08/09 01:24:56;;;;;;;2.80;2.23;;;16.10;99.90;;;;;;4970910;28;20542;-65
2023/08/09 01:27:24;;;;;;;5.60;2.10;;;16.00;99.90;;;;;;4974742;28;20457;-65
2023/08/09 01:29:54;;;;;;;4.47;2.70;;;16.00;99.90;;;;;;4992828;28;20481;-65
2023/08/09 01:32:23;;;;;;;2.93;2.60;;;16.00;99.90;;;;;;4993311;28;20441;-64
2023/08/09 01:34:51;;;;;;;3.03;2.73;;;16.00;99.90;;;;;;4993789;28;20458;-66
2023/08/09 01:37:27;;;;;;;8.43;3.87;;;15.80;99.90;;;;;;4993865;28;20481;-66
2023/08/09 01:39:59;;;;;;;4.00;2.90;;;15.80;99.90;;;;;;4994121;28;20453;-66
2023/08/09 01:42:29;;;;;;;2.93;2.73;;;15.80;99.90;;;;;;4985476;28;20961;-66
2023/08/09 01:44:58;;;;;;;3.87;2.20;;;15.80;99.90;;;;;;4974379;28;20465;-65
2023/08/09 01:47:26;;;;;;;4.93;2.93;;;15.80;99.90;;;;;;4974290;28;20452;-65
2023/08/09 01:49:54;;;;;;;2.60;2.40;;;15.70;99.90;;;;;;4974298;28;20481;-65
2023/08/09 01:52:22;;;;;;;6.03;2.80;;;15.70;99.90;;;;;;4973772;28;20447;-63
2023/08/09 01:54:50;;;;;;;3.60;2.70;;;15.60;99.90;;;;;;4973967;28;20471;-65
2023/08/09 01:57:20;;;;;;;3.20;2.70;;;15.60;99.90;;;;;;4974458;28;20533;-65
2023/08/09 01:59:48;;;;;;;5.00;3.17;;;15.50;99.90;;;;;;4974338;28;20434;-64
2023/08/09 02:02:16;;;;;;;3.23;2.93;;;15.50;99.90;;;;;;4973052;28;21175;-65
2023/08/09 02:04:44;;;;;;;2.50;2.30;;;15.50;99.90;;;;;;4979162;28;20477;-66
2023/08/09 02:07:12;;;;;;;3.90;2.47;;;15.50;99.90;;;;;;4994043;28;20445;-66
2023/08/09 02:09:40;;;;;;;2.77;2.37;;;15.50;99.90;;;;;;4993596;28;20480;-65
2023/08/09 02:12:08;;;;;;;3.00;2.70;;;15.40;99.90;;;;;;4993047;28;20490;-65
2023/08/09 02:14:38;;;;;;;3.60;2.73;;;15.40;99.90;;;;;;4992656;28;20468;-66
2023/08/09 02:17:09;;;;;;;2.63;2.30;;;15.30;99.90;;;;;;4979649;28;20487;-66
2023/08/09 02:19:37;;;;;;;3.73;3.33;;;15.20;99.90;;;;;;4974048;28;20495;-66
2023/08/09 02:22:05;;;;;;;3.00;2.70;;;15.20;99.90;;;;;;4973611;28;20554;-64
2023/08/09 02:24:33;;;;;;;5.73;3.30;;;15.10;99.90;;;;;;4973299;28;20465;-66
2023/08/09 02:27:01;;;;;;;7.87;2.87;;;15.10;99.90;;;;;;4973614;28;20538;-66
2023/08/09 02:29:30;;;;;;;3.97;3.17;;;15.10;99.90;;;;;;4974546;28;20530;-66
2023/08/09 02:32:00;;;;;;;3.27;2.73;;;15.10;99.90;;;;;;4993256;28;20452;-66
2023/08/09 02:34:28;;;;;;;3.63;2.87;;;15.10;99.90;;;;;;4992128;28;21001;-66
2023/08/09 02:36:57;;;;;;;3.13;2.93;;;15.10;99.90;;;;;;4992562;28;20446;-66
2023/08/09 02:39:25;;;;;;;3.67;3.07;;;15.20;99.90;;;;;;4993023;28;20521;-65
2023/08/09 02:41:53;;;;;;;3.87;3.57;;;15.10;99.90;;;;;;4993034;28;20439;-66
2023/08/09 02:44:21;;;;;;;4.17;3.70;;;15.10;99.90;;;;;;4983381;28;20467;-65
2023/08/09 02:46:49;;;;;;;3.97;3.57;;;15.20;99.90;;;;;;4973473;28;20446;-65
2023/08/09 02:49:18;;;;;;;5.40;3.73;;;15.20;99.90;;;;;;4973277;28;20534;-65
2023/08/09 02:51:46;;;;;;;4.00;3.57;;;15.20;99.90;;;;;;4973160;28;20554;-66
2023/08/09 02:54:14;;;;;;;4.33;3.50;;;15.20;99.90;;;;;;4972061;28;21141;-66
2023/08/09 02:56:42;;;;;;;4.90;3.87;;;15.30;99.90;;;;;;4973281;28;20446;-63
2023/08/09 02:59:10;;;;;;;3.93;3.43;;;15.20;99.90;;;;;;4988354;28;20478;-66
2023/08/09 03:01:38;;;;;;;3.53;3.23;;;15.30;99.90;;;;;;4992588;28;20529;-65
2023/08/09 03:04:06;;;;;;;3.67;3.30;;;15.30;99.90;;;;;;4991171;28;20463;-65
2023/08/09 03:06:36;;;;;;;3.73;3.43;;;15.30;99.90;;;;;;4992126;28;20442;-66
2023/08/09 03:09:06;;;;;;;4.83;4.17;;;15.40;99.90;;;;;;4992561;28;21226;-66
2023/08/09 03:11:34;;;;;;;5.13;3.00;;;15.30;99.90;;;;;;4990549;28;20474;-65
2023/08/09 03:14:02;;;;;;;3.73;3.40;;;15.30;99.90;;;;;;4990980;28;20457;-66
2023/08/09 03:16:30;;;;;;;3.30;2.97;;;15.30;99.90;;;;;;4992390;28;20445;-66
2023/08/09 03:18:58;;;;;;;2.87;2.27;;;15.20;99.90;;;;;;4992008;28;20450;-66
2023/08/09 03:21:27;;;;;;;3.13;2.80;;;15.20;99.90;;;;;;4991982;28;20448;-66
2023/08/09 03:23:56;;;;;;;3.23;2.93;;;15.20;99.90;;;;;;4991104;28;20453;-66
2023/08/09 03:26:26;;;;;;;3.60;2.77;;;15.20;99.90;;;;;;4981837;28;20514;-66
2023/08/09 03:28:54;;;;;;;4.17;2.87;;;15.20;99.90;;;;;;4972690;28;20447;-65
2023/08/09 03:31:22;;;;;;;3.60;3.30;;;15.20;99.90;;;;;;4972495;28;21264;-64
2023/08/09 03:33:50;;;;;;;3.40;2.60;;;15.30;99.90;;;;;;4971073;28;20549;-65
2023/08/09 03:36:20;;;;;;;4.53;3.33;;;15.20;99.90;;;;;;4972741;28;20504;-65
2023/08/09 03:38:48;;;;;;;5.50;3.27;;;15.30;99.90;;;;;;4972553;28;20445;-65
2023/08/09 03:41:17;;;;;;;3.13;2.83;;;15.30;99.90;;;;;;4989694;28;20456;-66
2023/08/09 03:43:45;;;;;;;5.20;2.90;;;15.30;99.90;;;;;;4990573;28;20452;-65
2023/08/09 03:46:13;;;;;;;2.87;2.60;;;15.20;99.90;;;;;;4991426;28;20521;-65
2023/08/09 03:48:41;;;;;;;3.83;2.77;;;15.30;99.90;;;;;;4990705;28;20939;-65
2023/08/09 03:51:09;;;;;;;3.23;2.60;;;15.30;99.90;;;;;;4981711;28;20889;-66
2023/08/09 03:53:37;;;;;;;3.13;2.57;;;15.30;99.90;;;;;;4971008;28;20454;-65
2023/08/09 03:56:05;;;;;;;3.07;2.43;;;15.30;99.90;;;;;;4972086;28;20852;-65
2023/08/09 03:58:35;;;;;;;5.20;3.47;;;15.30;99.90;;;;;;4972132;28;20496;-66
2023/08/09 04:01:03;;;;;;;3.10;2.80;;;15.30;99.90;;;;;;4972002;28;20449;-65
2023/08/09 04:03:32;;;;;;;4.07;3.00;;;15.30;99.90;;;;;;4971050;28;20451;-66
2023/08/09 04:06:02;;;;;;;3.20;3.00;;;15.30;99.90;;;;;;4988331;28;20509;-66
2023/08/09 04:08:30;;;;;;;3.50;2.77;;;15.30;99.90;;;;;;4990966;28;21175;-65
2023/08/09 04:11:07;;;;;;;3.80;3.20;;;15.30;99.90;;;;;;5128189;27;20517;-66
2023/08/09 04:13:35;;;;;;;2.77;2.43;;;15.40;99.90;;;;;;5126830;28;20446;-66
2023/08/09 04:16:03;;;;;;;4.97;3.20;;;15.40;99.90;;;;;;5107458;28;20953;-66
2023/08/09 04:18:31;;;;;;;3.47;3.07;;;15.40;99.90;;;;;;5107187;28;20545;-66
2023/08/09 04:20:59;;;;;;;2.80;2.60;;;15.40;99.90;;;;;;5107439;28;20490;-66
2023/08/09 04:23:27;;;;;;;5.67;3.10;;;15.40;99.90;;;;;;5106178;28;20437;-67
2023/08/09 04:25:57;;;;;;;4.20;2.93;;;15.40;99.90;;;;;;5107114;28;20526;-66
2023/08/09 04:28:26;;;;;;;3.67;3.07;;;15.30;99.90;;;;;;5107521;28;20453;-66
2023/08/09 04:30:54;;;;;;;2.90;2.57;;;15.30;99.90;;;;;;5107240;28;20480;-66
2023/08/09 04:33:22;;;;;;;4.33;2.43;;;15.40;99.90;;;;;;5105993;28;20457;-66
2023/08/09 04:35:50;;;;;;;3.73;2.30;;;15.40;99.90;;;;;;5107115;28;20474;-66
2023/08/09 04:38:18;;;;;;;3.53;2.30;;;15.40;99.90;;;;;;5107219;28;20487;-66
2023/08/09 04:40:47;;;;;;;4.93;2.73;;;15.50;99.90;;;;;;5107186;28;20432;-66
2023/08/09 04:43:15;;;;;;;5.20;2.53;;;15.60;99.90;;;;;;5105862;28;20994;-66
2023/08/09 04:45:44;;;;;;;3.77;2.93;;;15.60;99.90;;;;;;5106902;28;20832;-66
2023/08/09 04:48:17;;;;;;;3.00;2.53;;;15.60;99.90;;;;;;5106461;28;20449;-66
2023/08/09 04:50:45;;;;;;;4.10;2.60;;;15.60;99.90;;;;;;5106475;28;21066;-67
2023/08/09 04:53:13;;;;;;;2.60;2.40;;;15.60;99.90;;;;;;5105663;28;20470;-66
2023/08/09 04:55:40;;;;;;;2.63;2.43;;;15.70;99.90;;;;;;5106620;28;20464;-66
2023/08/09 04:58:09;;;;;;;4.13;2.63;;;15.80;99.90;;;;;;5106751;28;20440;-67
2023/08/09 05:00:37;;;;;;;2.57;2.10;;;16.00;99.90;;;;;;5106458;28;20440;-67
2023/08/09 05:03:06;;;;;;;2.43;2.07;;;16.00;99.90;;;;;;5105330;28;20494;-67
2023/08/09 05:05:34;;;;;;;3.90;2.40;;;16.10;99.90;;;;;;5106352;28;20974;-66
2023/08/09 05:08:02;;;;;;;2.73;2.17;;;16.20;99.90;;;;;;5106707;28;20469;-65
2023/08/09 05:10:30;;;;;;;2.77;1.83;;;16.20;99.90;;;;;;5106354;28;20549;-66
2023/08/09 05:12:58;;;;;;;3.17;2.40;;;16.30;99.90;;;;;;5105473;28;20453;-65
2023/08/09 05:15:27;;;;;;;2.20;1.70;;;16.30;99.90;;;;;;5106381;28;20460;-66
2023/08/09 05:17:55;;;;;;;3.63;1.80;;;16.40;99.90;;;;;;5106012;28;20445;-66
2023/08/09 05:20:25;;;;;;;2.43;1.80;;;16.50;99.90;;;;;;5104723;28;20444;-66
2023/08/09 05:22:53;;;;;;;2.50;2.30;;;16.60;99.90;;;;;;5091320;28;20993;-66
2023/08/09 05:25:21;;;;;;;3.40;2.20;;;16.60;99.90;;;;;;5092504;28;21151;-66
2023/08/09 05:27:48;;;;;;;3.30;2.13;;;16.70;99.90;;;;;;5092638;28;20430;-66
2023/08/09 05:30:19;;;;;;;3.47;1.73;;;16.70;99.90;;;;;;5092367;28;21065;-66
2023/08/09 05:32:47;;;;;;;3.23;2.10;;;16.70;99.90;;;;;;5090974;28;20939;-66
2023/08/09 05:35:15;;;;;;;1.83;1.60;;;16.70;99.90;;;;;;5092796;28;20465;-65
2023/08/09 05:37:44;;;;;;;1.90;1.77;;;16.90;99.90;;;;;;5092458;28;20441;-66
2023/08/09 05:40:13;;;;;;;2.73;1.70;;;16.90;99.90;;;;;;5092388;28;20442;-67
2023/08/09 05:42:42;;;;;;;1.97;1.77;;;16.90;99.90;;;;;;5091053;28;20445;-64
2023/08/09 05:45:10;;;;;;;2.57;2.10;;;17.00;99.90;;;;;;5092300;28;20458;-64
2023/08/09 05:47:38;;;;;;;4.73;1.80;;;17.10;99.90;;;;;;5091871;28;20446;-65
2023/08/09 05:50:08;;;;;;;3.10;1.90;;;17.20;99.90;;;;;;5091932;28;20545;-64
2023/08/09 05:52:36;;;;;;;2.63;2.27;;;17.40;99.90;;;;;;5091179;28;20450;-65
2023/08/09 05:55:08;;;;;;;2.50;2.30;;;17.50;99.90;;;;;;5092151;28;20988;-65
2023/08/09 05:57:36;;;;;;;2.30;1.67;;;17.50;99.90;;;;;;5092225;28;20821;-65
2023/08/09 06:00:11;;;;;;;5.47;2.77;;;17.60;99.90;;;;;;5092620;28;21020;-66
2023/08/09 06:02:39;;;;;;;1.97;1.80;;;17.70;99.90;;;;;;5091682;28;20430;-64
2023/08/09 06:05:08;;;;;;;2.13;1.73;;;17.80;99.90;;;;;;5092010;28;20473;-65
2023/08/09 06:07:36;;;;;;;3.17;2.53;;;17.90;99.90;;;;;;5092500;28;20454;-66
2023/08/09 06:10:04;;;;;;;2.37;2.00;;;18.00;99.90;;;;;;5091644;28;20531;-66
2023/08/09 06:12:34;;;;;;;2.90;1.73;;;18.00;99.90;;;;;;5090890;28;20822;-66
2023/08/09 06:15:02;;;;;;;2.67;1.80;;;18.10;99.90;;;;;;5091699;28;20458;-66
2023/08/09 06:17:30;;;;;;;3.37;2.67;;;18.20;99.90;;;;;;5091966;28;20448;-66
2023/08/09 06:19:59;;;;;;;2.53;1.50;;;18.30;99.90;;;;;;5091922;28;20474;-65
2023/08/09 06:22:26;;;;;;;2.33;2.03;;;18.30;99.90;;;;;;5090608;28;20529;-66
2023/08/09 06:24:54;;;;;;;3.97;1.50;;;18.40;99.90;;;;;;5091369;28;20572;-65
2023/08/09 06:27:22;;;;;;;1.93;1.80;;;18.50;99.90;;;;;;5091542;28;20438;-66
2023/08/09 06:29:52;;;;;;;2.80;1.83;;;18.70;99.90;;;;;;5091573;28;20835;-66
2023/08/09 06:32:20;;;;;;;3.37;1.90;;;18.70;99.90;;;;;;5091081;28;21181;-66
2023/08/09 06:34:50;;;;;;;1.73;1.33;;;18.70;99.90;;;;;;5091162;28;20462;-65
2023/08/09 06:37:18;;;;;;;3.10;2.20;;;18.90;99.90;;;;;;5090908;28;20442;-65
2023/08/09 06:39:46;;;;;;;3.60;2.07;;;18.90;99.90;;;;;;5091134;28;20442;-64
2023/08/09 06:42:14;;;;;;;3.30;2.10;;;19.10;99.90;;;;;;5090853;28;20442;-65
2023/08/09 06:44:42;;;;;;;3.00;2.27;;;19.10;99.90;;;;;;5090413;28;20511;-66
2023/08/09 06:47:11;;;;;;;1.93;1.70;;;19.20;99.90;;;;;;5091153;28;20446;-65
2023/08/09 06:49:39;;;;;;;2.03;1.77;;;19.30;99.90;;;;;;5090681;28;20442;-66
2023/08/09 06:52:07;;;;;;;2.30;1.70;;;19.40;99.90;;;;;;5090773;28;20527;-66
2023/08/09 06:54:35;;;;;;;3.07;1.67;;;19.50;99.90;;;;;;5090112;28;20466;-66
2023/08/09 06:57:03;;;;;;;2.20;1.67;;;19.60;99.90;;;;;;5090926;28;20442;-66
2023/08/09 06:59:32;;;;;;;2.10;1.90;;;19.40;99.90;;;;;;5090966;28;20506;-66
2023/08/09 07:02:00;;;;;;;2.40;1.53;;;19.40;99.90;;;;;;5090537;28;20997;-64
2023/08/09 07:04:30;;;;;;;3.30;1.80;;;19.40;99.90;;;;;;5089833;28;20565;-66
2023/08/09 07:06:58;;;;;;;1.97;1.60;;;19.20;99.90;;;;;;5090775;28;20443;-66
2023/08/09 07:09:26;;;;;;;4.60;2.20;;;19.10;99.90;;;;;;5090657;28;21000;-66
2023/08/09 07:11:54;;;;;;;2.20;1.73;;;19.10;99.90;;;;;;5090501;28;20473;-66
2023/08/09 07:14:22;;;;;;;2.60;1.63;;;19.20;99.90;;;;;;5089327;28;20490;-66
2023/08/09 07:16:50;;;;;;;5.17;1.70;;;19.30;99.90;;;;;;5090301;28;20438;-66
2023/08/09 07:19:18;;;;;;;3.23;1.90;;;19.40;99.90;;;;;;5090333;28;20445;-66
2023/08/09 07:21:47;;;;;;;2.27;1.73;;;19.50;99.90;;;;;;5090452;28;20448;-66
2023/08/09 07:24:15;;;;;;;3.33;1.63;;;19.70;99.90;;;;;;5088926;28;20494;-66
2023/08/09 07:26:43;;;;;;;3.60;1.80;;;19.80;99.90;;;;;;5090347;28;20446;-66
2023/08/09 07:29:11;;;;;;;2.23;1.60;;;20.00;99.90;;;;;;5090174;28;20450;-66
2023/08/09 07:31:39;;;;;;;2.80;1.73;;;20.30;99.90;;;;;;5090435;28;20481;-66
2023/08/09 07:34:07;;;;;;;2.30;1.63;;;20.50;99.90;;;;;;5088671;28;20466;-67
2023/08/09 07:36:35;;;;;;;2.60;2.00;;;20.50;99.90;;;;;;5090282;28;20462;-66
2023/08/09 07:39:04;;;;;;;3.90;2.37;;;20.60;99.90;;;;;;5089947;28;20435;-67
2023/08/09 07:41:32;;;;;;;2.33;1.80;;;20.90;99.90;;;;;;5089938;28;20447;-66
2023/08/09 07:44:00;;;;;;;2.70;1.90;;;21.00;99.90;;;;;;5088589;28;20466;-65
2023/08/09 07:46:28;;;;;;;4.03;1.77;;;21.00;99.90;;;;;;5089868;28;20442;-66
2023/08/09 07:48:58;;;;;;;1.80;1.70;;;20.90;99.90;;;;;;5090117;28;20924;-66
2023/08/09 07:51:26;;;;;;;4.03;1.97;;;20.90;99.90;;;;;;5089718;28;20553;-66
2023/08/09 07:53:54;;;;;;;2.03;1.70;;;20.90;99.90;;;;;;5088751;28;20438;-66
2023/08/09 07:56:23;;;;;;;3.70;2.00;;;20.90;99.90;;;;;;5069660;28;20825;-66
2023/08/09 07:58:53;;;;;;;2.07;1.70;;;20.90;99.90;;;;;;5070020;28;20455;-66
2023/08/09 08:01:21;;;;;;;2.70;1.83;;;20.70;99.90;;;;;;5069896;28;20534;-66
2023/08/09 08:03:49;;;;;;;2.03;1.67;;;20.50;99.90;;;;;;5068960;28;20439;-66
2023/08/09 08:06:18;;;;;;;2.70;1.67;;;20.40;99.90;;;;;;5089450;28;20446;-66
2023/08/09 08:08:46;;;;;;;1.90;1.33;;;20.40;99.90;;;;;;5089617;28;20474;-66
2023/08/09 08:11:14;;;;;;;4.87;2.07;;;20.40;99.90;;;;;;5089684;28;20506;-66
2023/08/09 08:13:43;;;;;;;4.03;1.30;;;20.50;99.90;;;;;;5088443;28;20437;-66
2023/08/09 08:16:11;;;;;;;2.77;2.20;;;20.40;99.90;;;;;;5089772;28;20836;-65
2023/08/09 08:18:39;;;;;;;5.40;1.90;;;20.40;99.90;;;;;;5089652;28;20446;-66
2023/08/09 08:21:08;;;;;;;2.90;1.60;;;20.30;99.90;;;;;;5089306;28;20442;-66
2023/08/09 08:23:36;;;;;;;1.73;1.60;;;20.20;99.90;;;;;;5088178;28;20442;-65
2023/08/09 08:26:05;;;;;;;3.70;1.67;;;20.10;99.90;;;;;;5089720;28;20511;-65
2023/08/09 08:28:33;;;;;;;4.00;1.97;;;20.00;99.90;;;;;;5089705;28;20442;-66
2023/08/09 08:31:05;;;;;;;5.80;1.90;;;19.90;99.90;;;;;;5089426;28;20450;-65
2023/08/09 08:33:33;;;;;;;2.00;1.80;;;19.90;99.90;;;;;;5088411;28;20441;-66
2023/08/09 08:36:01;;;;;;;4.07;1.80;;;19.80;99.90;;;;;;5089313;28;20881;-65
2023/08/09 08:38:49;;;;;;;2.23;1.60;;;19.70;99.90;;;;;;5089812;28;20445;-66
2023/08/09 08:41:17;;;;;;;2.63;2.00;;;19.60;99.90;;;;;;5089349;28;20442;-67
2023/08/09 08:43:45;;;;;;;4.67;1.90;;;19.60;99.90;;;;;;5088048;28;20508;-66
2023/08/09 08:46:16;;;;;;;4.03;2.27;;;19.60;99.90;;;;;;5089233;28;20437;-65
2023/08/09 08:48:48;;;;;;;2.27;1.90;;;19.60;99.90;;;;;;5089109;28;20438;-66
2023/08/09 08:51:17;;;;;;;2.20;2.00;;;19.60;99.90;;;;;;5069073;28;20550;-65
2023/08/09 08:53:46;;;;;;;3.47;2.00;;;19.40;99.90;;;;;;5067837;28;20500;-66
2023/08/09 08:56:15;;;;;;;4.83;3.53;;;19.40;99.90;;;;;;5069905;28;20500;-65
2023/08/09 08:58:43;;;;;;;2.40;1.73;;;19.40;99.90;;;;;;5072530;28;20474;-65
2023/08/09 09:01:12;;;;;;;3.70;1.77;;;19.70;99.90;;;;;;5073005;28;20558;-66
2023/08/09 09:03:42;;;;;;;4.77;2.20;;;19.80;99.90;;;;;;5071409;28;20464;-65
2023/08/09 09:06:10;;;;;;;10.20;3.10;;;20.00;99.90;;;;;;5084218;28;20499;-65
2023/08/09 09:08:41;;;;;;;4.70;2.17;;;20.10;99.90;;;;;;5092681;28;20474;-65
2023/08/09 09:11:15;;;;;;;4.40;1.73;;;20.10;99.90;;;;;;5092948;28;20503;-65
2023/08/09 09:13:43;;;;;;;5.13;2.03;;;20.00;99.90;;;;;;5091471;28;20473;-66
2023/08/09 09:16:12;;;;;;;2.13;1.93;;;20.00;99.90;;;;;;5092765;28;20443;-65
2023/08/09 09:18:46;;;;;;;2.27;2.07;;;20.10;99.90;;;;;;5092879;28;20446;-66
2023/08/09 09:21:16;;;;;;;3.20;1.90;;;20.10;99.90;;;;;;5072451;28;20442;-66
2023/08/09 09:23:44;;;;;;;2.03;1.83;;;19.90;99.90;;;;;;5070953;28;20870;-65
2023/08/09 09:26:15;;;;;;;2.03;1.80;;;19.90;99.90;;;;;;5072113;28;20439;-65
2023/08/09 09:28:45;;;;;;;2.43;1.97;;;19.90;99.90;;;;;;5072616;28;20446;-65
2023/08/09 09:31:17;;;;;;;2.13;1.70;;;19.90;99.90;;;;;;5072136;28;20488;-65
2023/08/09 09:33:50;;;;;;;3.40;2.30;;;19.90;99.90;;;;;;5070959;28;20478;-66
2023/08/09 09:36:18;;;;;;;5.67;2.40;;;19.80;99.90;;;;;;5083134;28;20960;-65
2023/08/09 09:38:52;;;;;;;3.30;2.10;;;19.60;99.90;;;;;;5091993;28;20453;-65
2023/08/09 09:41:21;;;;;;;2.83;2.10;;;19.70;99.90;;;;;;5091964;28;20519;-65
2023/08/09 09:43:50;;;;;;;2.63;1.77;;;20.00;99.90;;;;;;5091358;28;20438;-65
2023/08/09 09:46:20;;;;;;;2.20;2.00;;;20.30;99.90;;;;;;5092300;28;20504;-66
2023/08/09 09:49:05;;;;;;;2.63;2.10;;;20.50;99.90;;;;;;5092219;28;20434;-65
2023/08/09 09:51:35;;;;;;;2.73;2.07;;;20.60;99.90;;;;;;5090534;28;21149;-64
2023/08/09 09:54:04;;;;;;;4.30;2.10;;;20.50;99.90;;;;;;5089901;28;20553;-66
2023/08/09 09:56:32;;;;;;;5.57;2.50;;;20.60;99.90;;;;;;5089041;28;20659;-66
2023/08/09 09:59:02;;;;;;;4.43;2.20;;;20.70;99.90;;;;;;5087471;28;21210;-67
2023/08/09 10:01:33;;;;;;;2.50;1.83;;;20.90;99.90;;;;;;5091601;28;20835;-65
2023/08/09 10:04:08;;;;;;;2.20;1.80;;;20.80;99.90;;;;;;5086900;28;21052;-66
2023/08/09 10:06:42;;;;;;;2.60;2.20;;;21.00;99.90;;;;;;5102032;28;20601;-65
2023/08/09 10:09:13;;;;;;;4.20;2.30;;;21.20;99.90;;;;;;5091402;28;20454;-64
2023/08/09 10:11:44;;;;;;;2.63;2.40;;;21.10;99.90;;;;;;5091404;28;20464;-66
2023/08/09 10:14:14;;;;;;;5.60;2.83;;;21.10;99.90;;;;;;5089609;28;20478;-66
2023/08/09 10:16:44;;;;;;;2.20;2.10;;;20.50;99.90;;;;;;5092432;28;20521;-66
2023/08/09 10:19:19;;;;;;;3.10;2.50;;;19.70;99.90;;;;;;5083893;28;20473;-65
2023/08/09 10:21:48;;;;;;;4.63;2.80;;;19.10;99.90;;;;;;5089936;28;20498;-65
2023/08/09 10:24:18;;;;;;;7.20;2.80;;;18.90;99.90;;;;;;5086646;28;20462;-66
2023/08/09 10:26:49;;;;;;;4.60;2.70;;;18.90;99.90;;;;;;5088495;28;20883;-67
2023/08/09 10:29:20;;;;;;;3.17;2.60;;;18.90;99.90;;;;;;5086637;28;20453;-66
2023/08/09 10:31:54;;;;;;;4.47;2.60;;;18.90;99.90;;;;;;5091249;28;20442;-66
2023/08/09 10:34:34;;;;;;;5.27;2.43;;;19.00;99.90;;;;;;5089976;28;20473;-65
2023/08/09 10:37:03;;;;;;;3.60;2.20;;;18.90;99.90;;;;;;5090854;28;20491;-66
2023/08/09 10:39:31;;;;;;;2.70;2.50;;;19.00;99.90;;;;;;5088885;28;20943;-66
2023/08/09 10:42:02;;;;;;;5.03;2.20;;;19.00;99.90;;;;;;5090876;28;20466;-66
2023/08/09 10:44:39;;;;;;;3.57;2.80;;;19.10;99.90;;;;;;5085492;28;20529;-66
2023/08/09 10:47:11;;;;;;;4.43;3.00;;;19.20;99.90;;;;;;5090877;28;20462;-66
2023/08/09 10:50:02;;;;;;;3.63;2.30;;;19.40;99.90;;;;;;5090970;28;20435;-67
2023/08/09 10:52:33;;;;;;;2.20;2.03;;;19.80;99.90;;;;;;5089915;28;20897;-65
2023/08/09 10:55:25;;;;;;;2.53;2.20;;;20.00;99.90;;;;;;5090284;28;20472;-68
2023/08/09 10:57:55;;;;;;;3.07;2.40;;;20.30;99.90;;;;;;5086403;28;20478;-67
2023/08/09 11:00:25;;;;;;;3.40;2.57;;;20.50;99.90;;;;;;5089698;28;20829;-67
2023/08/09 11:02:54;;;;;;;3.57;2.50;;;20.60;99.90;;;;;;5085834;28;20442;-66
2023/08/09 11:05:27;;;;;;;2.73;2.20;;;20.80;99.90;;;;;;5085663;28;20511;-67
2023/08/09 11:07:56;;;;;;;2.10;1.93;;;21.30;99.90;;;;;;5086470;28;20434;-67
2023/08/09 11:10:33;;;;;;;3.63;2.67;;;22.10;99.90;;;;;;5090369;28;20898;-67
2023/08/09 11:13:05;;;;;;;4.40;2.70;;;22.80;99.90;;;;;;5087165;28;20482;-66
2023/08/09 11:15:34;;;;;;;2.33;2.13;;;23.20;99.90;;;;;;5087307;28;20465;-67
2023/08/09 11:18:02;;;;;;;3.93;2.23;;;23.30;99.90;;;;;;5089943;28;20448;-67
2023/08/09 11:20:32;;;;;;;3.37;2.10;;;22.90;99.90;;;;;;5086927;28;20970;-67
2023/08/09 11:23:01;;;;;;;2.90;2.60;;;22.40;99.90;;;;;;5088787;28;20446;-65
2023/08/09 11:25:31;;;;;;;2.80;2.50;;;22.10;99.90;;;;;;5090543;28;20504;-67
2023/08/09 11:28:01;;;;;;;3.70;2.40;;;21.90;99.90;;;;;;5090386;28;20480;-67
2023/08/09 11:30:31;;;;;;;2.70;1.90;;;21.90;99.90;;;;;;5088520;28;20442;-67
2023/08/09 11:33:01;;;;;;;4.20;2.00;;;22.00;99.90;;;;;;5088511;28;20573;-67
2023/08/09 11:35:39;;;;;;;5.33;2.27;;;22.10;99.90;;;;;;5090094;28;20911;-66
2023/08/09 11:38:09;;;;;;;3.10;2.40;;;22.30;99.90;;;;;;5089752;28;20446;-66
2023/08/09 11:40:43;;;;;;;3.20;2.10;;;22.30;99.90;;;;;;5090057;28;20928;-66
2023/08/09 11:43:12;;;;;;;2.30;2.10;;;22.50;99.90;;;;;;5088725;28;20978;-66
2023/08/09 11:45:52;;;;;;;3.40;2.73;;;22.90;99.90;;;;;;5073141;28;20507;-66
2023/08/09 11:48:31;;;;;;;5.57;2.40;;;23.20;99.90;;;;;;5090140;28;20808;-65
2023/08/09 11:51:05;;;;;;;2.57;2.33;;;23.50;99.90;;;;;;5089785;28;20470;-66
2023/08/09 11:53:35;;;;;;;3.40;2.00;;;23.60;99.90;;;;;;5088740;28;20492;-64
2023/08/09 11:56:05;;;;;;;3.27;2.27;;;23.40;99.90;;;;;;5089566;28;20557;-66
2023/08/09 11:58:37;;;;;;;2.43;2.07;;;23.20;99.90;;;;;;5090194;28;21052;-66
2023/08/09 12:01:16;;;;;;;4.20;2.20;;;23.30;99.90;;;;;;5088664;28;20523;-65
2023/08/09 12:03:46;;;;;;;6.50;2.47;;;23.00;99.90;;;;;;5088566;28;20922;-67
2023/08/09 12:06:15;;;;;;;4.17;3.00;;;22.90;99.90;;;;;;5087241;28;20437;-66
2023/08/09 12:08:43;;;;;;;3.67;2.30;;;23.10;99.90;;;;;;5089681;28;20460;-65
2023/08/09 12:11:16;;;;;;;2.97;2.10;;;23.20;99.90;;;;;;5089593;28;20450;-66
2023/08/09 12:13:44;;;;;;;3.40;2.37;;;23.40;99.90;;;;;;5087869;28;20480;-66
2023/08/09 12:16:12;;;;;;;3.37;1.97;;;23.00;99.90;;;;;;5089324;28;20442;-67
2023/08/09 12:18:40;;;;;;;4.60;2.10;;;22.70;99.90;;;;;;5089204;28;20887;-66
2023/08/09 12:21:08;;;;;;;2.83;2.17;;;22.80;99.90;;;;;;5089197;28;20466;-67
2023/08/09 12:23:38;;;;;;;3.30;2.13;;;23.20;99.90;;;;;;5088134;28;20476;-65
2023/08/09 12:26:07;;;;;;;4.13;2.00;;;23.80;99.90;;;;;;5089412;28;20499;-67
2023/08/09 12:28:35;;;;;;;2.50;1.90;;;23.70;99.90;;;;;;5072923;28;20438;-67
2023/08/09 12:31:05;;;;;;;2.00;1.77;;;23.60;99.90;;;;;;5089732;28;21020;-66
2023/08/09 12:33:32;;;;;;;2.47;2.10;;;24.00;99.50;;;;;;5091847;28;20820;-66
2023/08/09 12:36:00;;;;;;;3.33;2.40;;;23.80;99.40;;;;;;5093415;28;20466;-66
2023/08/09 12:38:28;;;;;;;4.53;2.17;;;23.50;98.80;;;;;;5093287;28;20434;-67
2023/08/09 12:40:58;;;;;;;1.93;1.63;;;23.40;99.60;;;;;;5090364;28;20450;-66
2023/08/09 12:43:26;;;;;;;4.37;2.10;;;23.20;99.10;;;;;;5092276;28;21142;-68
2023/08/09 12:45:55;;;;;;;3.30;2.30;;;22.90;99.10;;;;;;5093160;28;20462;-67
2023/08/09 12:48:23;;;;;;;3.17;2.23;;;22.70;99.40;;;;;;5090650;28;20499;-67
2023/08/09 12:50:51;;;;;;;3.50;2.00;;;23.10;99.90;;;;;;5089175;28;20438;-67
2023/08/09 12:53:19;;;;;;;4.77;1.80;;;23.30;99.10;;;;;;5091951;28;20499;-68
2023/08/09 12:55:47;;;;;;;3.57;2.00;;;23.60;99.00;;;;;;5093209;28;20837;-67
2023/08/09 12:58:16;;;;;;;2.80;1.70;;;23.90;99.00;;;;;;5093350;28;20791;-65